createdAt,value
2018-07-02T03:01:03.853Z,5.63
2018-07-02T03:02:04.383Z,5.63
2018-07-02T03:03:04.944Z,5.63
2018-07-02T03:04:05.456Z,5.63
2018-07-02T03:06:05.957Z,5.63
2018-07-02T03:08:06.066Z,5.63
2018-07-02T03:09:05.107Z,11.25
2018-07-02T03:10:03.482Z,11.25
2018-07-02T03:11:03.500Z,11.25
2018-07-02T03:12:03.906Z,11.25
2018-07-02T03:13:03.948Z,11.25
2018-07-02T03:14:04.053Z,11.25
2018-07-02T03:15:04.180Z,16.88
2018-07-02T03:16:04.701Z,16.88
2018-07-02T03:17:04.433Z,16.88
2018-07-02T03:18:04.787Z,16.88
2018-07-02T03:19:04.947Z,22.50
2018-07-02T03:20:05.404Z,22.50
2018-07-02T03:21:05.085Z,22.50
2018-07-02T03:22:05.349Z,22.50
2018-07-02T03:23:05.640Z,28.13
2018-07-02T03:24:05.759Z,28.13
2018-07-02T03:25:05.910Z,28.13
2018-07-02T03:26:06.216Z,28.13
2018-07-02T03:27:06.341Z,33.75
2018-07-02T03:28:06.591Z,33.75
2018-07-02T03:29:06.808Z,33.75
2018-07-02T03:30:07.019Z,33.75
2018-07-02T03:31:07.131Z,39.38
2018-07-02T03:32:07.236Z,39.38
2018-07-02T03:33:07.507Z,39.38
2018-07-02T03:34:07.622Z,45.00
2018-07-02T03:35:07.904Z,45.00
2018-07-02T03:36:08.004Z,45.00
2018-07-02T03:37:08.174Z,45.00
2018-07-02T03:38:08.533Z,50.63
2018-07-02T03:39:08.510Z,50.63
2018-07-02T03:40:08.820Z,50.63
2018-07-02T03:41:09.039Z,56.25
2018-07-02T03:42:09.312Z,56.25
2018-07-02T03:43:09.485Z,56.25
2018-07-02T03:44:09.707Z,56.25
2018-07-02T03:45:09.939Z,61.88
2018-07-02T03:46:10.020Z,61.88
2018-07-02T03:47:10.192Z,61.88
2018-07-02T03:48:10.520Z,61.88
2018-07-02T03:49:10.535Z,67.50
2018-07-02T03:50:11.063Z,67.50
2018-07-02T03:51:11.035Z,67.50
2018-07-02T03:52:11.079Z,73.13
2018-07-02T03:53:11.250Z,73.13
2018-07-02T03:54:11.436Z,73.13
2018-07-02T03:55:11.573Z,73.13
2018-07-02T03:56:11.966Z,78.75
2018-07-02T03:57:12.180Z,78.75
2018-07-02T03:58:12.161Z,78.75
2018-07-02T03:59:12.460Z,78.75
2018-07-02T04:00:12.496Z,84.38
2018-07-02T04:01:12.699Z,84.38
2018-07-02T04:02:13.111Z,84.38
2018-07-02T04:03:13.097Z,84.38
2018-07-02T04:04:13.330Z,84.38
2018-07-02T04:05:13.285Z,90.00
2018-07-02T04:06:13.635Z,90.00
2018-07-02T04:07:13.736Z,90.00
2018-07-02T04:08:13.952Z,90.00
2018-07-02T04:09:14.218Z,95.63
2018-07-02T04:10:14.364Z,95.63
2018-07-02T04:11:14.520Z,95.63
2018-07-02T04:12:14.788Z,95.63
2018-07-02T04:13:14.880Z,95.63
2018-07-02T04:14:15.142Z,101.25
2018-07-02T04:15:15.535Z,101.25
2018-07-02T04:16:15.738Z,101.25
2018-07-02T04:17:16.481Z,101.25
2018-07-02T04:18:15.850Z,101.25
2018-07-02T04:19:16.752Z,106.88
2018-07-02T04:20:28.940Z,106.88
2018-07-02T04:21:19.725Z,106.88
2018-07-02T04:22:19.498Z,106.88
2018-07-02T04:23:21.065Z,106.88
2018-07-02T04:24:24.602Z,106.88
2018-07-02T04:25:22.379Z,112.50
2018-07-02T04:26:23.066Z,112.50
2018-07-02T04:27:20.109Z,112.50
2018-07-02T04:28:20.417Z,112.50
2018-07-02T04:29:20.127Z,112.50
2018-07-02T04:30:17.981Z,112.50
2018-07-02T04:31:18.031Z,118.13
2018-07-02T04:32:18.229Z,118.13
2018-07-02T04:33:18.422Z,118.13
2018-07-02T04:34:18.857Z,118.13
2018-07-02T04:35:18.846Z,118.13
2018-07-02T04:36:19.265Z,118.13
2018-07-02T04:37:19.134Z,118.13
2018-07-02T04:38:19.537Z,123.75
2018-07-02T04:39:19.489Z,123.75
2018-07-02T04:40:20.119Z,123.75
2018-07-02T04:41:20.320Z,123.75
2018-07-02T04:42:20.324Z,123.75
2018-07-02T04:43:20.208Z,123.75
2018-07-02T04:44:20.566Z,123.75
2018-07-02T04:45:20.556Z,129.38
2018-07-02T04:46:20.809Z,129.38
2018-07-02T04:47:20.864Z,129.38
2018-07-02T04:48:21.025Z,129.38
2018-07-02T04:49:21.218Z,129.38
2018-07-02T04:50:21.437Z,129.38
2018-07-02T04:51:21.721Z,129.38
2018-07-02T04:52:21.820Z,129.38
2018-07-02T04:53:21.955Z,129.38
2018-07-02T04:54:22.004Z,135.00
2018-07-02T04:55:22.312Z,135.00
2018-07-02T04:56:22.467Z,135.00
2018-07-02T04:57:22.613Z,135.00
2018-07-02T04:58:22.847Z,135.00
2018-07-02T04:59:23.136Z,135.00
2018-07-02T05:00:23.185Z,135.00
2018-07-02T05:01:23.435Z,140.63
2018-07-02T05:02:23.369Z,140.63
2018-07-02T05:03:23.646Z,140.63
2018-07-02T05:04:23.829Z,140.63
2018-07-02T05:05:23.959Z,146.25
2018-07-02T05:06:24.164Z,146.25
2018-07-02T05:07:24.322Z,146.25
2018-07-02T05:08:24.557Z,151.88
2018-07-02T05:09:24.830Z,151.88
2018-07-02T05:10:24.900Z,157.50
2018-07-02T05:11:25.154Z,157.50
2018-07-02T05:12:25.281Z,157.50
2018-07-02T05:13:25.593Z,163.13
2018-07-02T05:14:25.654Z,163.13
2018-07-02T05:15:25.919Z,168.75
2018-07-02T05:16:26.032Z,174.38
2018-07-02T05:17:26.264Z,180.00
2018-07-02T05:18:26.364Z,180.00
2018-07-02T05:19:26.530Z,185.63
2018-07-02T05:20:26.787Z,191.25
2018-07-02T05:21:26.854Z,191.25
2018-07-02T05:48:35.896Z,236.25
2018-07-02T05:51:18.387Z,236.25
2018-07-02T05:54:46.881Z,241.88
2018-07-02T05:57:19.961Z,247.50
2018-07-02T06:00:29.215Z,247.50
2018-07-02T06:17:00.651Z,270.00
2018-07-02T06:19:08.051Z,270.00
2018-07-02T06:48:11.322Z,315.00
2018-07-02T06:49:10.925Z,309.38
2018-07-02T06:50:11.365Z,309.38
2018-07-02T06:51:11.480Z,309.38
2018-07-02T06:52:12.075Z,309.38
2018-07-02T06:54:10.674Z,309.38
2018-07-02T06:55:10.532Z,309.38
2018-07-02T06:56:10.027Z,309.38
2018-07-02T06:57:10.270Z,315.00
2018-07-02T06:58:10.242Z,309.38
2018-07-02T06:59:29.628Z,309.38
2018-07-02T07:04:39.511Z,315.00
2018-07-02T07:05:26.873Z,315.00
2018-07-02T07:42:48.875Z,354.38
2018-07-02T08:00:22.387Z,360.00
2018-07-02T08:01:13.014Z,365.63
2018-07-02T08:02:14.351Z,360.00
2018-07-02T08:03:16.953Z,360.00
2018-07-02T08:04:22.102Z,365.63
2018-07-02T08:05:22.355Z,365.63
2018-07-02T08:06:16.510Z,365.63
2018-07-02T08:07:13.517Z,365.63
2018-07-02T08:08:11.830Z,371.25
2018-07-02T08:09:12.046Z,365.63
2018-07-02T08:10:12.010Z,371.25
2018-07-02T08:11:12.332Z,371.25
2018-07-02T08:12:12.407Z,371.25
2018-07-02T08:13:12.651Z,371.25
2018-07-02T08:14:12.860Z,371.25
2018-07-02T08:15:12.991Z,371.25
2018-07-02T08:16:13.608Z,371.25
2018-07-02T08:17:13.409Z,376.88
2018-07-02T08:18:13.381Z,376.88
2018-07-02T08:19:13.693Z,388.13
2018-07-02T08:20:13.721Z,393.75
2018-07-02T08:21:13.953Z,427.50
2018-07-02T08:22:14.311Z,444.38
2018-07-02T08:23:14.665Z,444.38
2018-07-02T08:24:14.622Z,444.38
2018-07-02T08:25:14.781Z,438.75
2018-07-02T08:26:15.051Z,444.38
2018-07-02T08:27:15.180Z,455.63
2018-07-02T08:28:15.823Z,466.88
2018-07-02T08:29:15.562Z,483.75
2018-07-02T08:30:16.013Z,495.00
2018-07-02T08:31:15.841Z,500.63
2018-07-02T08:32:16.408Z,528.75
2018-07-02T08:33:16.087Z,540.00
2018-07-02T08:34:16.366Z,556.88
2018-07-02T08:35:17.063Z,534.38
2018-07-02T08:36:17.617Z,478.13
2018-07-02T08:37:16.832Z,410.63
2018-07-02T08:38:17.056Z,405.00
2018-07-02T08:39:17.262Z,399.38
2018-07-02T08:40:17.505Z,399.38
2018-07-02T08:41:17.533Z,399.38
2018-07-02T08:42:17.954Z,399.38
2018-07-02T08:43:17.853Z,399.38
2018-07-02T08:44:19.749Z,405.00
2018-07-02T08:45:18.212Z,399.38
2018-07-02T08:46:18.466Z,405.00
2018-07-02T08:47:18.594Z,405.00
2018-07-02T08:48:18.821Z,410.63
2018-07-02T08:49:18.999Z,410.63
2018-07-02T08:50:19.108Z,410.63
2018-07-02T08:51:19.364Z,410.63
2018-07-02T08:52:19.468Z,410.63
2018-07-02T08:53:19.805Z,416.25
2018-07-02T08:54:19.821Z,416.25
2018-07-02T08:55:20.032Z,416.25
2018-07-02T08:56:20.113Z,416.25
2018-07-02T08:57:20.337Z,416.25
2018-07-02T08:58:20.614Z,421.88
2018-07-02T08:59:21.209Z,421.88
2018-07-02T09:00:20.982Z,421.88
2018-07-02T09:01:21.208Z,421.88
2018-07-02T09:02:21.465Z,427.50
2018-07-02T09:03:21.473Z,427.50
2018-07-02T09:04:21.850Z,433.13
2018-07-02T09:05:22.519Z,433.13
2018-07-02T09:06:22.400Z,438.75
2018-07-02T09:07:22.518Z,438.75
2018-07-02T09:08:22.544Z,438.75
2018-07-02T09:09:22.862Z,444.38
2018-07-02T09:10:23.332Z,444.38
2018-07-02T09:11:24.325Z,444.38
2018-07-02T09:12:23.435Z,450.00
2018-07-02T09:13:23.685Z,450.00
2018-07-02T09:14:23.792Z,455.63
2018-07-02T09:15:23.749Z,455.63
2018-07-02T09:16:24.332Z,461.25
2018-07-02T09:17:24.327Z,455.63
2018-07-02T09:18:24.460Z,461.25
2018-07-02T09:19:24.859Z,461.25
2018-07-02T09:20:24.886Z,461.25
2018-07-02T09:21:24.997Z,461.25
2018-07-02T09:22:25.335Z,461.25
2018-07-02T09:23:25.584Z,461.25
2018-07-02T09:24:25.412Z,461.25
2018-07-02T09:25:25.826Z,466.88
2018-07-02T09:26:26.047Z,466.88
2018-07-02T09:27:26.098Z,461.25
2018-07-02T09:28:26.503Z,461.25
2018-07-02T09:29:26.664Z,461.25
2018-07-02T09:30:27.166Z,461.25
2018-07-02T09:31:27.493Z,461.25
2018-07-02T09:32:28.105Z,461.25
2018-07-02T09:33:28.490Z,461.25
2018-07-02T09:34:30.167Z,461.25
2018-07-02T09:35:28.945Z,461.25
2018-07-02T09:36:29.567Z,461.25
2018-07-02T09:37:27.938Z,461.25
2018-07-02T09:38:28.351Z,461.25
2018-07-02T09:39:28.352Z,461.25
2018-07-02T09:40:30.566Z,461.25
2018-07-02T09:41:29.598Z,461.25
2018-07-02T09:42:30.029Z,461.25
2018-07-02T09:43:30.965Z,466.88
2018-07-02T09:44:29.342Z,466.88
2018-07-02T09:45:32.489Z,461.25
2018-07-02T09:46:31.241Z,461.25
2018-07-02T09:47:29.962Z,461.25
2018-07-02T09:48:32.264Z,461.25
2018-07-02T09:49:31.071Z,461.25
2018-07-02T09:50:31.728Z,466.88
2018-07-02T09:51:30.747Z,461.25
2018-07-02T09:52:30.940Z,466.88
2018-07-02T09:53:30.892Z,466.88
2018-07-02T09:54:31.445Z,466.88
2018-07-02T09:55:34.787Z,466.88
2018-07-02T09:56:33.724Z,472.50
2018-07-02T09:57:31.580Z,472.50
2018-07-02T09:58:34.171Z,478.13
2018-07-02T09:59:32.323Z,472.50
2018-07-02T10:00:32.609Z,472.50
2018-07-02T10:01:32.760Z,472.50
2018-07-02T10:02:34.535Z,472.50
2018-07-02T10:03:34.417Z,478.13
2018-07-02T10:04:33.406Z,478.13
2018-07-02T10:05:34.612Z,478.13
2018-07-02T10:06:33.599Z,483.75
2018-07-02T10:07:34.692Z,517.50
2018-07-02T10:08:33.728Z,900.00
2018-07-02T10:09:34.097Z,1513.13
2018-07-02T10:10:34.881Z,2086.88
2018-07-02T10:12:01.607Z,2458.13
2018-07-02T10:12:35.916Z,2486.25
2018-07-02T10:13:35.483Z,2491.88
2018-07-02T10:14:34.594Z,2486.25
2018-07-02T10:15:34.768Z,2514.38
2018-07-02T10:16:35.118Z,2520.00
2018-07-02T10:17:35.857Z,2520.00
2018-07-02T10:18:35.529Z,2514.38
2018-07-02T10:19:35.676Z,2525.63
2018-07-02T10:20:37.106Z,2525.63
2018-07-02T10:21:35.954Z,2536.88
2018-07-02T10:22:36.975Z,2559.38
2018-07-02T10:23:37.336Z,2598.75
2018-07-02T10:24:37.108Z,2610.00
2018-07-02T10:25:36.997Z,2638.13
2018-07-02T10:26:37.316Z,2643.75
2018-07-02T10:27:37.458Z,2655.00
2018-07-02T10:28:37.636Z,2655.00
2018-07-02T10:29:37.426Z,2649.38
2018-07-02T10:30:38.555Z,2677.50
2018-07-02T10:31:37.962Z,2683.13
2018-07-02T10:32:38.622Z,2705.63
2018-07-02T10:33:39.259Z,2705.63
2018-07-02T10:34:38.520Z,2722.50
2018-07-02T10:35:38.807Z,2761.88
2018-07-02T10:36:40.743Z,2750.63
2018-07-02T10:37:39.328Z,2733.75
2018-07-02T10:38:41.992Z,2722.50
2018-07-02T10:40:18.361Z,2705.63
2018-07-02T10:42:37.383Z,2683.13
2018-07-02T12:10:27.785Z,3729.38
2018-07-02T12:10:47.940Z,3729.38
2018-07-02T12:15:17.748Z,3791.25
2018-07-02T12:18:16.166Z,3841.88
2018-07-02T12:18:43.866Z,3864.38
2018-07-02T12:19:12.731Z,3886.88
2018-07-02T12:20:11.279Z,3847.50
2018-07-02T12:21:10.924Z,3847.50
2018-07-02T12:22:11.056Z,3830.63
2018-07-02T12:23:11.258Z,3813.75
2018-07-02T12:24:11.474Z,3819.38
2018-07-02T12:25:11.612Z,3813.75
2018-07-02T12:26:11.770Z,3830.63
2018-07-02T12:27:12.043Z,3836.25
2018-07-02T12:28:12.272Z,3875.63
2018-07-02T12:29:12.265Z,3915.00
2018-07-02T12:30:12.437Z,3937.50
2018-07-02T12:31:12.705Z,3982.50
2018-07-02T12:32:12.798Z,3993.75
2018-07-02T12:33:13.135Z,3976.88
2018-07-02T12:34:13.275Z,3982.50
2018-07-02T12:35:13.453Z,4016.25
2018-07-02T12:36:13.544Z,4038.75
2018-07-02T12:37:13.737Z,3999.38
2018-07-02T12:38:13.934Z,3982.50
2018-07-02T12:39:14.159Z,3982.50
2018-07-02T12:40:14.399Z,3971.25
2018-07-02T12:41:14.646Z,3993.75
2018-07-02T12:42:14.688Z,4005.00
2018-07-02T12:43:14.882Z,4027.50
2018-07-02T12:44:15.024Z,4038.75
2018-07-02T12:45:15.269Z,4078.13
2018-07-02T12:46:15.521Z,4061.25
2018-07-02T12:47:15.742Z,4061.25
2018-07-02T12:48:15.832Z,4055.63
2018-07-02T12:49:16.099Z,4038.75
2018-07-02T12:50:16.271Z,4044.38
2018-07-02T12:51:16.599Z,4021.88
2018-07-02T12:52:16.705Z,3999.38
2018-07-02T12:53:16.874Z,4005.00
2018-07-02T12:54:17.167Z,4021.88
2018-07-02T12:55:17.199Z,4005.00
2018-07-02T12:56:17.411Z,3976.88
2018-07-02T12:57:17.538Z,3948.75
2018-07-02T12:58:17.814Z,3988.13
2018-07-02T12:59:17.954Z,3982.50
2018-07-02T13:00:18.141Z,4010.63
2018-07-02T13:01:18.319Z,4061.25
2018-07-02T13:02:18.573Z,4083.75
2018-07-02T13:03:18.671Z,4100.63
2018-07-02T13:04:18.885Z,4095.00
2018-07-02T13:05:19.034Z,4117.50
2018-07-02T13:06:19.250Z,4106.25
2018-07-02T13:07:19.386Z,4140.00
2018-07-02T13:08:19.607Z,4128.75
2018-07-02T13:09:19.776Z,4128.75
2018-07-02T13:10:19.995Z,4123.13
2018-07-02T13:11:20.133Z,4100.63
2018-07-02T13:12:20.284Z,4117.50
2018-07-02T13:13:20.601Z,4111.88
2018-07-02T13:14:20.679Z,4106.25
2018-07-02T13:15:20.829Z,4095.00
2018-07-02T13:16:21.076Z,4111.88
2018-07-02T13:17:21.281Z,4089.38
2018-07-02T13:18:21.576Z,4095.00
2018-07-02T13:19:21.668Z,4095.00
2018-07-02T13:20:21.933Z,4083.75
2018-07-02T13:21:22.015Z,4145.63
2018-07-02T13:22:22.179Z,4168.13
2018-07-02T13:23:22.390Z,4213.13
2018-07-02T13:24:22.520Z,4246.88
2018-07-02T13:25:22.748Z,4218.75
2018-07-02T13:26:22.972Z,4241.25
2018-07-02T13:27:23.088Z,4246.88
2018-07-02T13:28:23.386Z,4241.25
2018-07-02T13:29:23.566Z,4185.00
2018-07-02T13:30:23.755Z,4162.50
2018-07-02T13:31:23.905Z,4134.38
2018-07-02T13:32:24.171Z,4111.88
2018-07-02T13:33:24.214Z,4123.13
2018-07-02T13:34:24.401Z,4145.63
2018-07-02T13:35:24.808Z,4140.00
2018-07-02T13:36:24.893Z,4134.38
2018-07-02T13:37:24.998Z,4173.75
2018-07-02T13:38:25.168Z,4207.50
2018-07-02T13:39:25.498Z,4213.13
2018-07-02T13:40:25.528Z,4230.00
2018-07-02T13:41:25.764Z,4235.63
2018-07-02T13:42:25.959Z,4218.75
2018-07-02T13:43:26.106Z,4201.88
2018-07-02T13:44:26.301Z,4230.00
2018-07-02T13:45:26.509Z,4179.38
2018-07-02T13:46:26.646Z,4111.88
2018-07-02T13:47:26.918Z,4089.38
2018-07-02T13:48:27.126Z,4066.88
2018-07-02T13:49:27.514Z,4095.00
2018-07-02T13:50:27.542Z,4095.00
2018-07-02T13:51:28.026Z,4100.63
2018-07-02T13:52:28.118Z,4123.13
2018-07-02T13:53:28.318Z,4123.13
2018-07-02T13:54:28.582Z,4117.50
2018-07-02T13:55:28.522Z,4111.88
2018-07-02T13:56:28.670Z,4140.00
2018-07-02T13:57:28.785Z,4145.63
2018-07-02T13:58:29.020Z,4151.25
2018-07-02T13:59:30.636Z,4134.38
2018-07-02T14:00:29.941Z,4134.38
2018-07-02T14:01:29.637Z,4128.75
2018-07-02T14:02:29.992Z,4123.13
2018-07-02T14:03:29.977Z,4100.63
2018-07-02T14:04:30.258Z,4095.00
2018-07-02T14:05:30.289Z,4078.13
2018-07-02T14:06:30.455Z,4027.50
2018-07-02T14:07:30.717Z,4010.63
2018-07-02T14:08:30.902Z,4027.50
2018-07-02T14:09:31.207Z,4027.50
2018-07-02T14:10:31.279Z,4027.50
2018-07-02T14:11:31.465Z,4016.25
2018-07-02T14:12:31.764Z,4021.88
2018-07-02T14:13:31.874Z,4005.00
2018-07-02T14:14:32.215Z,3965.63
2018-07-02T14:15:32.335Z,3926.25
2018-07-02T14:16:32.483Z,3886.88
2018-07-02T14:17:32.626Z,3830.63
2018-07-02T14:18:32.899Z,3723.75
2018-07-02T14:19:33.033Z,3656.25
2018-07-02T14:20:33.243Z,3605.63
2018-07-02T14:21:33.291Z,3594.38
2018-07-02T14:22:33.462Z,3600.00
2018-07-02T14:23:33.799Z,3549.38
2018-07-02T14:24:33.843Z,3616.88
2018-07-02T14:25:34.105Z,3656.25
2018-07-02T14:26:34.127Z,3774.38
2018-07-02T14:27:34.621Z,3808.13
2018-07-02T14:28:35.113Z,3853.13
2018-07-02T14:29:34.842Z,3825.00
2018-07-02T14:30:35.111Z,3813.75
2018-07-02T14:31:35.479Z,3825.00
2018-07-02T14:32:35.413Z,3841.88
2018-07-02T14:33:36.085Z,3853.13
2018-07-02T14:34:35.942Z,3808.13
2018-07-02T14:35:36.023Z,3808.13
2018-07-02T14:36:36.414Z,3780.00
2018-07-02T14:37:36.571Z,3735.00
2018-07-02T14:38:36.740Z,3701.25
2018-07-02T14:39:37.146Z,3661.88
2018-07-02T14:40:37.015Z,3622.50
2018-07-02T14:41:37.181Z,3633.75
2018-07-02T14:42:37.475Z,3622.50
2018-07-02T14:43:37.766Z,3667.50
2018-07-02T14:44:38.016Z,3661.88
2018-07-02T14:45:39.164Z,3605.63
2018-07-02T14:46:38.206Z,3639.38
2018-07-02T14:47:38.407Z,3583.13
2018-07-02T14:48:38.625Z,3515.63
2018-07-02T14:49:38.827Z,3448.13
2018-07-02T14:50:39.113Z,3391.88
2018-07-02T14:51:39.258Z,3330.00
2018-07-02T14:52:39.388Z,3290.63
2018-07-02T14:53:39.872Z,3301.88
2018-07-02T14:54:39.886Z,3341.25
2018-07-02T14:55:40.134Z,3403.13
2018-07-02T14:56:40.214Z,3448.13
2018-07-02T14:57:40.564Z,3498.75
2018-07-02T14:58:40.758Z,3532.50
2018-07-02T14:59:40.759Z,3549.38
2018-07-02T15:00:40.927Z,3515.63
2018-07-02T15:01:41.106Z,3487.50
2018-07-02T15:02:41.310Z,3476.25
2018-07-02T15:03:41.509Z,3442.50
2018-07-02T15:04:42.049Z,3397.50
2018-07-02T15:05:41.986Z,3352.50
2018-07-02T15:06:42.039Z,3324.38
2018-07-02T15:07:42.225Z,3268.13
2018-07-02T15:08:42.455Z,3211.88
2018-07-02T15:09:42.652Z,3178.13
2018-07-02T15:10:42.891Z,3138.75
2018-07-02T15:11:43.082Z,3116.25
2018-07-02T15:12:43.212Z,3116.25
2018-07-02T15:13:43.346Z,3121.88
2018-07-02T15:14:43.563Z,3133.13
2018-07-02T15:15:43.785Z,3172.50
2018-07-02T15:16:43.945Z,3223.13
2018-07-02T15:17:44.084Z,3268.13
2018-07-02T15:18:44.273Z,3279.38
2018-07-02T15:19:44.391Z,3268.13
2018-07-02T15:20:44.548Z,3256.88
2018-07-02T15:21:44.794Z,3217.50
2018-07-02T15:22:44.997Z,3206.25
2018-07-02T15:23:45.127Z,3155.63
2018-07-02T15:24:45.282Z,3110.63
2018-07-02T15:25:45.535Z,3054.38
2018-07-02T15:26:45.702Z,3060.00
2018-07-02T15:27:45.865Z,3043.13
2018-07-02T15:28:46.041Z,3020.63
2018-07-02T15:29:46.263Z,3043.13
2018-07-02T15:30:46.408Z,3031.88
2018-07-02T15:31:46.620Z,3054.38
2018-07-02T15:32:46.740Z,3037.50
2018-07-02T15:33:46.966Z,3020.63
2018-07-02T15:34:47.244Z,2986.88
2018-07-02T15:35:47.483Z,2958.75
2018-07-02T15:36:47.550Z,2913.75
2018-07-02T15:37:47.833Z,2885.63
2018-07-02T15:38:47.908Z,2863.13
2018-07-02T15:39:48.114Z,2835.00
2018-07-02T15:40:48.255Z,2823.75
2018-07-02T15:41:48.659Z,2806.88
2018-07-02T15:42:48.747Z,2778.75
2018-07-02T15:43:48.878Z,2784.38
2018-07-02T15:44:50.024Z,2773.13
2018-07-02T15:45:49.333Z,2767.50
2018-07-02T15:46:49.540Z,2761.88
2018-07-02T15:47:49.765Z,2745.00
2018-07-02T15:48:49.902Z,2722.50
2018-07-02T15:49:50.129Z,2700.00
2018-07-02T15:50:50.274Z,2683.13
2018-07-02T15:51:50.395Z,2666.25
2018-07-02T15:52:50.626Z,2638.13
2018-07-02T15:53:50.791Z,2621.25
2018-07-02T15:54:51.006Z,2598.75
2018-07-02T15:55:51.095Z,2598.75
2018-07-02T15:56:51.336Z,2587.50
2018-07-02T15:57:51.456Z,2570.63
2018-07-02T15:58:51.788Z,2548.13
2018-07-02T15:59:52.098Z,2508.75
2018-07-02T16:00:52.126Z,2475.00
2018-07-02T16:01:52.320Z,2441.25
2018-07-02T16:02:52.555Z,2407.50
2018-07-02T16:03:52.742Z,2373.75
2018-07-02T16:04:52.869Z,2345.63
2018-07-02T16:05:53.182Z,2340.00
2018-07-02T16:06:53.309Z,2345.63
2018-07-02T16:07:53.569Z,2340.00
2018-07-02T16:08:53.579Z,2351.25
2018-07-02T16:09:53.884Z,2340.00
2018-07-02T16:10:54.039Z,2317.50
2018-07-02T16:11:54.313Z,2317.50
2018-07-02T16:12:54.420Z,2289.38
2018-07-02T16:13:54.668Z,2261.25
2018-07-02T16:14:54.880Z,2255.63
2018-07-02T16:15:55.169Z,2221.88
2018-07-02T16:16:55.362Z,2199.38
2018-07-02T16:17:55.471Z,2165.63
2018-07-02T16:18:55.638Z,2143.13
2018-07-02T16:19:55.893Z,2126.25
2018-07-02T16:20:56.033Z,2126.25
2018-07-02T16:21:56.201Z,2098.13
2018-07-02T16:22:56.485Z,2075.63
2018-07-02T16:23:56.673Z,2070.00
2018-07-02T16:24:56.806Z,2058.75
2018-07-02T16:25:56.983Z,2036.25
2018-07-02T16:26:57.142Z,2019.38
2018-07-02T16:27:57.385Z,2002.50
2018-07-02T16:28:57.612Z,1985.63
2018-07-02T16:29:57.644Z,1946.25
2018-07-02T16:30:57.914Z,1946.25
2018-07-02T16:31:58.141Z,1940.63
2018-07-02T16:32:58.355Z,1901.25
2018-07-02T16:33:58.404Z,1873.13
2018-07-02T16:34:58.645Z,1833.75
2018-07-02T16:35:58.899Z,1816.88
2018-07-02T16:36:59.035Z,1805.63
2018-07-02T16:37:59.243Z,1800.00
2018-07-02T16:38:59.383Z,1788.75
2018-07-02T16:39:59.553Z,1766.25
2018-07-02T16:40:59.777Z,1738.13
2018-07-02T16:42:00.002Z,1698.75
2018-07-02T16:43:00.066Z,1659.38
2018-07-02T16:44:00.277Z,1625.63
2018-07-02T16:45:00.625Z,1575.00
2018-07-02T16:46:00.607Z,1530.00
2018-07-02T16:47:00.832Z,1490.63
2018-07-02T16:48:01.190Z,1434.38
2018-07-02T16:49:01.172Z,1158.75
2018-07-02T16:50:01.405Z,781.88
2018-07-02T16:51:01.562Z,596.25
2018-07-02T16:52:01.736Z,568.13
2018-07-02T16:53:01.896Z,455.63
2018-07-02T16:54:02.174Z,444.38
2018-07-02T16:55:02.302Z,326.25
2018-07-02T16:56:02.520Z,264.38
2018-07-02T16:57:02.719Z,258.75
2018-07-02T16:58:02.913Z,258.75
2018-07-02T16:59:03.080Z,258.75
2018-07-02T17:00:03.249Z,303.75
2018-07-02T17:01:03.392Z,433.13
2018-07-02T17:02:03.603Z,410.63
2018-07-02T17:03:03.864Z,376.88
2018-07-02T17:04:03.986Z,489.38
2018-07-02T17:05:04.135Z,483.75
2018-07-02T17:06:04.351Z,483.75
2018-07-02T17:07:04.505Z,562.50
2018-07-02T17:08:04.637Z,511.88
2018-07-02T17:09:04.923Z,348.75
2018-07-02T17:10:05.127Z,247.50
2018-07-02T17:11:05.248Z,253.13
2018-07-02T17:12:05.431Z,309.38
2018-07-02T17:13:06.145Z,455.63
2018-07-02T17:14:05.755Z,438.75
2018-07-02T17:15:05.839Z,326.25
2018-07-02T17:16:06.039Z,241.88
2018-07-02T17:17:06.211Z,236.25
2018-07-02T17:18:06.673Z,236.25
2018-07-02T17:19:06.563Z,236.25
2018-07-02T17:20:06.764Z,230.63
2018-07-02T17:21:07.289Z,230.63
2018-07-02T17:22:07.327Z,225.00
2018-07-02T17:23:07.405Z,230.63
2018-07-02T17:24:07.479Z,225.00
2018-07-02T17:25:07.637Z,219.38
2018-07-02T17:26:07.767Z,219.38
2018-07-02T17:27:07.975Z,219.38
2018-07-02T17:28:08.043Z,219.38
2018-07-02T17:29:08.436Z,219.38
2018-07-02T17:30:08.535Z,213.75
2018-07-02T17:31:08.719Z,213.75
2018-07-02T17:32:08.879Z,213.75
2018-07-02T17:33:09.123Z,208.13
2018-07-02T17:34:09.253Z,208.13
2018-07-02T17:35:09.392Z,208.13
2018-07-02T17:36:09.829Z,202.50
2018-07-02T17:37:09.899Z,202.50
2018-07-02T17:38:10.081Z,202.50
2018-07-02T17:39:10.211Z,202.50
2018-07-02T17:40:10.439Z,196.88
2018-07-02T17:41:10.972Z,196.88
2018-07-02T17:42:10.817Z,196.88
2018-07-02T17:43:11.077Z,196.88
2018-07-02T17:44:11.288Z,191.25
2018-07-02T17:45:11.493Z,191.25
2018-07-02T17:46:11.508Z,191.25
2018-07-02T17:47:11.639Z,191.25
2018-07-02T17:48:11.903Z,185.63
2018-07-02T17:49:12.054Z,185.63
2018-07-02T17:50:12.291Z,185.63
2018-07-02T17:51:13.640Z,185.63
2018-07-02T17:52:12.749Z,185.63
2018-07-02T17:53:13.023Z,180.00
2018-07-02T17:54:13.170Z,180.00
2018-07-02T17:55:13.467Z,180.00
2018-07-02T17:56:13.487Z,180.00
2018-07-02T17:57:13.647Z,180.00
2018-07-02T17:58:13.957Z,180.00
2018-07-02T17:59:13.997Z,180.00
2018-07-02T18:00:14.119Z,185.63
2018-07-02T18:01:14.402Z,174.38
2018-07-02T18:02:14.482Z,174.38
2018-07-02T18:03:14.895Z,174.38
2018-07-02T18:04:14.933Z,174.38
2018-07-02T18:05:15.117Z,174.38
2018-07-02T18:06:15.229Z,168.75
2018-07-02T18:07:15.554Z,168.75
2018-07-02T18:08:15.649Z,168.75
2018-07-02T18:09:15.847Z,163.13
2018-07-02T18:10:15.996Z,163.13
2018-07-02T18:11:16.349Z,163.13
2018-07-02T18:12:16.420Z,163.13
2018-07-02T18:13:16.535Z,157.50
2018-07-02T18:14:16.852Z,157.50
2018-07-02T18:15:17.056Z,157.50
2018-07-02T18:16:17.447Z,163.13
2018-07-02T18:17:17.392Z,151.88
2018-07-02T18:18:17.491Z,151.88
2018-07-02T18:19:17.759Z,151.88
2018-07-02T18:20:18.103Z,157.50
2018-07-02T18:21:18.138Z,146.25
2018-07-02T18:22:18.208Z,146.25
2018-07-02T18:23:18.469Z,146.25
2018-07-02T18:24:18.621Z,146.25
2018-07-02T18:25:18.738Z,140.63
2018-07-02T18:26:18.966Z,140.63
2018-07-02T18:27:19.208Z,140.63
2018-07-02T18:28:19.434Z,140.63
2018-07-02T18:29:19.623Z,135.00
2018-07-02T18:30:19.741Z,135.00
2018-07-02T18:31:20.037Z,135.00
2018-07-02T18:32:20.154Z,129.38
2018-07-02T18:33:20.190Z,129.38
2018-07-02T18:34:20.445Z,129.38
2018-07-02T18:35:20.670Z,123.75
2018-07-02T18:36:21.609Z,123.75
2018-07-02T18:37:21.008Z,123.75
2018-07-02T18:38:21.365Z,118.13
2018-07-02T18:39:21.629Z,118.13
2018-07-02T18:40:21.624Z,118.13
2018-07-02T18:41:24.170Z,112.50
2018-07-02T18:42:23.717Z,112.50
2018-07-02T18:43:22.928Z,112.50
2018-07-02T18:44:22.917Z,106.88
2018-07-02T18:45:23.234Z,106.88
2018-07-02T18:46:23.203Z,106.88
2018-07-02T18:51:57.731Z,95.63
2018-07-02T20:59:57.671Z,0.00
2018-07-02T21:26:15.236Z,0.00
2018-07-02T21:27:07.655Z,0.00
2018-07-02T21:28:14.852Z,0.00
